Laredo, TX (78042)

7:59 AM CDT on September 21, 2014 (GMT -0500)
Del Mar C | Change Station
CLOSE
Current Station
Personal Weather Station
Location: Laredo, TX
Elevation: 489 ft
Nearby Weather Stations

Elev 489 ft 27.56 °N, 99.48 °W | Updated 30 seconds ago

Mostly Cloudy
Mostly Cloudy
77.0 °F
Feels Like 78 °F
N
7.2
Wind Variable Wind from NE
Gusts 7.4 mph

Today
High -- | Low -- °F
--% Chance of Precip.
Yesterday
High -- | Low -- °F
Precip. -- in
7:26 AM 7:35 PM
Waning Crescent, 7% visible
Pressure 30.01 in
Visibility 9.0 miles
Clouds Mostly Cloudy 400 ft
Heat Index 78 °F
Dew Point 76 °F
Humidity 97%
Rainfall 0.00 in
Snow Depth Not available.
UV 0 out of 12
Pollen 7.70 out of 12
Ozone Good
PM2.5 Good
Flu Activity Not available.
SPECI KLRD 211215Z AUTO 06007KT 9SM BKN004 24/24 A3001 RMK AO2

More Conditions Fewer Conditions

Pressure 30.01 in
Visibility 9.0 miles
Clouds Mostly Cloudy 400 ft
Heat Index 78 °F
Dew Point 76 °F
Humidity 97%
Rainfall 0.00 in
Snow Depth Not available.
UV 0 out of 12
Pollen 7.70 out of 12
Ozone Good
PM2.5 Good
Flu Activity Not available.
SPECI KLRD 211215Z AUTO 06007KT 9SM BKN004 24/24 A3001 RMK AO2

More Conditions Fewer Conditions

Nowcast | as of 7:14 am CDT on September 21, 2014

Through 930 am CDT...isolated to scattered showers will continue to affect portions of south Texas and the middle Texas coastal waters. An isolated thunderstorm is also possible. Moderate to heavy rainfall may occur with these showers...with rainfall amounts generally less than a quarter of an inch an hour. However...isolated higher amounts of 1 to one and a half inch are possible with the heavier showers.

×

10-Day Weather Forecast

Almanac

Astronomy

Sep. 21, 2014 Rise Set
Actual Time 7:26 AM CDT 7:35 PM CDT
Civil Twilight 7:02 AM CDT 7:58 PM CDT
Nautical Twilight 6:35 AM CDT 8:26 PM CDT
Astronomical Twilight 6:08 AM CDT 8:53 PM CDT
Moon 5:11 AM CDT 6:04 PM CDT
Length of Visible Light 12h 56m
Length of Day
12h 09m
Tomorrow will be 1m 38s shorter.
Waning Crescent, 7% of the Moon is Illuminated
Today
Waning Crescent
Sep 24
New
Oct 1
First Quarter
Oct 8
Full
Oct 15
Last Quarter

Today's Extremes

State Highs State Lows

Community

WunderPhotos

Upload Photos

1,755,127 photos uploaded!

Nearby

Air Quality

  Air Quality AQ Index Pollutant
Yesterday Good
PM2.5
Yesterday Good
OZONE
Current Good
PM2.5
Current Good
OZONE
Sunday Good
PM10
Sunday Good
OZONE
Monday Good
PM10
Monday Good
OZONE
Tuesday Good
PM10
Tuesday Good
OZONE

Snow Depth

Station Depth Elevation
No new snow has been reported.

Earthquake Activity

City Distance Mag. Time & Date
No recent earthquake activity has been reported nearby.
Minimum magnitude displayed is 2.5.

Coastal Water Temperatures

Place Temperature
No Stations Reporting

Nearby Weather Stations